createdAt,value
2019-01-03T00:00:07.040Z,5.57
2019-01-03T00:03:11.097Z,5.70
2019-01-03T00:06:16.365Z,5.40
2019-01-03T00:09:24.473Z,5.40
2019-01-03T00:12:19.052Z,5.83
2019-01-03T00:15:24.238Z,5.70
2019-01-03T00:18:12.891Z,5.50
2019-01-03T00:21:18.457Z,5.35
2019-01-03T00:24:07.090Z,5.90
2019-01-03T00:27:01.881Z,5.83
2019-01-03T00:29:54.025Z,5.20
2019-01-03T00:32:54.886Z,5.63
2019-01-03T00:35:49.612Z,5.27
2019-01-03T00:38:38.634Z,5.07
2019-01-03T00:41:27.474Z,5.17
2019-01-03T00:44:31.280Z,5.13
2019-01-03T00:47:38.121Z,5.58
2019-01-03T00:50:27.288Z,5.10
2019-01-03T00:53:22.467Z,5.42
2019-01-03T00:56:20.424Z,5.05
2019-01-03T00:59:27.627Z,5.20
2019-01-03T01:02:31.866Z,5.10
2019-01-03T01:05:35.995Z,4.80
2019-01-03T01:08:27.735Z,5.10
2019-01-03T01:11:28.825Z,6.00
2019-01-03T01:14:33.681Z,6.33
2019-01-03T01:17:22.287Z,9.00
2019-01-03T01:20:14.066Z,7.80
2019-01-03T01:23:11.807Z,10.17
2019-01-03T01:26:10.037Z,8.63
2019-01-03T01:29:07.554Z,13.53
2019-01-03T01:32:05.374Z,10.38
2019-01-03T01:35:10.052Z,10.23
2019-01-03T01:38:15.412Z,10.17
2019-01-03T01:41:10.225Z,8.60
2019-01-03T01:43:59.006Z,8.13
2019-01-03T01:46:56.633Z,8.40
2019-01-03T01:50:01.570Z,8.23
2019-01-03T01:52:53.237Z,8.13
2019-01-03T01:55:58.605Z,7.40
2019-01-03T01:58:53.359Z,7.80
2019-01-03T02:01:54.089Z,7.73
2019-01-03T02:04:42.865Z,7.90
2019-01-03T02:07:31.893Z,7.55
2019-01-03T02:10:36.964Z,7.08
2019-01-03T02:13:28.889Z,7.20
2019-01-03T02:16:17.547Z,7.13
2019-01-03T02:19:15.136Z,7.20
2019-01-03T02:22:10.165Z,7.12
2019-01-03T02:25:08.057Z,7.03
2019-01-03T02:28:13.066Z,7.10
2019-01-03T02:31:11.279Z,6.80
2019-01-03T02:33:59.994Z,7.23
2019-01-03T02:36:49.212Z,7.57
2019-01-03T02:39:44.072Z,7.85
2019-01-03T02:42:33.248Z,7.67
2019-01-03T02:45:28.217Z,7.50
2019-01-03T02:48:33.412Z,7.43
2019-01-03T02:51:31.264Z,7.50
2019-01-03T02:54:38.290Z,6.97
2019-01-03T02:57:39.173Z,7.62
2019-01-03T03:00:27.795Z,7.20
2019-01-03T03:03:28.730Z,6.50
2019-01-03T03:06:17.689Z,6.77
2019-01-03T03:09:11.063Z,7.40
2019-01-03T03:12:00.130Z,7.33
2019-01-03T03:15:04.812Z,6.87
2019-01-03T03:18:03.042Z,11.15
2019-01-03T03:21:03.853Z,10.80
2019-01-03T03:23:56.075Z,12.97
2019-01-03T03:26:45.044Z,11.30
2019-01-03T03:29:48.885Z,11.87
2019-01-03T03:32:37.994Z,9.70
2019-01-03T03:35:32.552Z,7.30
2019-01-03T03:38:37.566Z,6.20
2019-01-03T03:41:35.575Z,6.20
2019-01-03T03:44:24.576Z,5.97
2019-01-03T03:47:22.074Z,5.93
2019-01-03T03:50:10.974Z,5.77
2019-01-03T03:53:16.412Z,12.40
2019-01-03T03:56:21.937Z,9.57
2019-01-03T03:59:19.812Z,5.40
2019-01-03T04:02:08.798Z,7.60
2019-01-03T04:05:00.244Z,24.30
2019-01-03T04:07:51.982Z,24.00
2019-01-03T04:10:43.970Z,16.70
2019-01-03T04:13:39.230Z,9.10
2019-01-03T04:16:34.018Z,11.13
2019-01-03T04:19:22.813Z,7.93
2019-01-03T04:22:14.487Z,8.40
2019-01-03T04:25:06.380Z,8.00
2019-01-03T04:27:58.040Z,8.10
2019-01-03T04:30:53.208Z,7.30
2019-01-03T04:33:42.086Z,6.42
2019-01-03T04:36:33.857Z,6.90
2019-01-03T04:39:38.879Z,6.70
2019-01-03T04:42:44.179Z,7.28
2019-01-03T04:45:45.129Z,8.00
2019-01-03T04:48:37.309Z,7.03
2019-01-03T04:51:32.061Z,6.97
2019-01-03T04:54:36.181Z,7.60
2019-01-03T04:57:41.152Z,6.80
2019-01-03T05:00:30.049Z,6.43
2019-01-03T05:03:36.797Z,6.37
2019-01-03T05:06:31.805Z,6.83
2019-01-03T05:09:20.779Z,8.00
2019-01-03T05:12:15.256Z,5.13
2019-01-03T05:15:19.833Z,5.00
2019-01-03T05:18:20.385Z,5.40
2019-01-03T05:21:25.352Z,5.30
2019-01-03T05:24:32.668Z,4.57
2019-01-03T05:27:30.212Z,5.20
2019-01-03T05:30:19.069Z,5.50
2019-01-03T05:33:08.173Z,5.17
2019-01-03T05:36:11.808Z,5.67
2019-01-03T05:39:09.647Z,6.33
2019-01-03T05:42:04.013Z,5.60
2019-01-03T05:44:55.746Z,6.10
2019-01-03T05:47:47.002Z,6.53
2019-01-03T05:50:35.954Z,5.13
2019-01-03T05:53:40.725Z,4.43
2019-01-03T05:56:29.411Z,3.70
2019-01-03T05:59:17.859Z,3.33
2019-01-03T06:02:09.274Z,3.80
2019-01-03T06:05:14.047Z,4.50
2019-01-03T06:08:19.016Z,3.97
2019-01-03T06:11:23.990Z,5.70
2019-01-03T06:14:28.269Z,3.60
2019-01-03T06:17:28.929Z,3.70
2019-01-03T06:20:35.592Z,4.40
2019-01-03T06:23:27.105Z,4.27
2019-01-03T06:26:24.646Z,5.57
2019-01-03T06:29:25.290Z,5.00
2019-01-03T06:32:30.022Z,4.90
2019-01-03T06:35:27.148Z,4.60
2019-01-03T06:38:18.777Z,5.13
2019-01-03T06:41:07.396Z,4.57
2019-01-03T06:44:08.264Z,4.70
2019-01-03T06:47:02.340Z,4.53
2019-01-03T06:50:07.228Z,4.80
2019-01-03T06:52:58.603Z,5.10
2019-01-03T06:55:53.209Z,4.77
2019-01-03T06:58:59.711Z,5.80
2019-01-03T07:01:54.218Z,5.00
2019-01-03T07:04:45.834Z,4.97
2019-01-03T07:07:46.243Z,5.00
2019-01-03T07:10:51.525Z,9.10
2019-01-03T07:13:42.943Z,8.27
2019-01-03T07:16:40.377Z,10.03
2019-01-03T07:19:45.037Z,10.50
2019-01-03T07:22:49.729Z,6.80
2019-01-03T07:25:50.990Z,6.70
2019-01-03T07:28:54.551Z,5.97
2019-01-03T07:32:01.241Z,6.27
2019-01-03T07:35:06.200Z,6.40
2019-01-03T07:37:57.840Z,6.80
2019-01-03T07:40:46.833Z,5.73
2019-01-03T07:43:37.837Z,7.13
2019-01-03T07:46:29.199Z,6.30
2019-01-03T07:49:18.067Z,22.60
2019-01-03T07:52:21.531Z,11.40
2019-01-03T07:55:21.834Z,6.27
2019-01-03T07:58:22.493Z,6.93
2019-01-03T08:01:27.381Z,7.17
2019-01-03T08:04:16.355Z,8.97
2019-01-03T08:07:20.089Z,13.33
2019-01-03T08:10:14.611Z,11.73
2019-01-03T08:13:17.959Z,19.20
2019-01-03T08:16:07.009Z,14.40
2019-01-03T08:18:55.874Z,16.80
2019-01-03T08:21:44.844Z,13.33
2019-01-03T08:24:33.570Z,14.90
2019-01-03T08:27:38.310Z,13.53
2019-01-03T08:30:27.316Z,16.33
2019-01-03T08:33:18.535Z,14.53
2019-01-03T08:36:10.147Z,14.77
2019-01-03T08:39:04.365Z,14.20
2019-01-03T08:42:09.050Z,10.97
2019-01-03T08:44:57.365Z,10.40
2019-01-03T08:48:02.125Z,13.57
2019-01-03T08:51:05.804Z,16.43
2019-01-03T08:54:10.589Z,32.00
2019-01-03T08:56:59.228Z,31.60
2019-01-03T08:59:54.091Z,31.63
2019-01-03T09:03:00.667Z,15.07
2019-01-03T09:06:01.016Z,10.10
2019-01-03T09:08:49.675Z,8.43
2019-01-03T09:11:54.104Z,7.43
2019-01-03T09:14:43.039Z,11.67
2019-01-03T09:17:31.510Z,8.00
2019-01-03T09:20:22.712Z,7.67
2019-01-03T09:23:26.598Z,8.57
2019-01-03T09:26:24.437Z,10.03
2019-01-03T09:29:27.933Z,10.70
2019-01-03T09:32:25.651Z,8.90
2019-01-03T09:35:19.691Z,8.57
2019-01-03T09:38:11.163Z,8.80
2019-01-03T09:40:59.776Z,9.07
2019-01-03T09:44:04.831Z,7.93
2019-01-03T09:46:51.870Z,5.67
2019-01-03T09:49:38.645Z,8.17
2019-01-03T09:52:25.429Z,5.07
2019-01-03T09:55:12.859Z,5.00
2019-01-03T09:58:00.044Z,3.50
2019-01-03T10:00:47.135Z,3.70
2019-01-03T10:03:34.396Z,2.97
2019-01-03T10:06:21.411Z,2.87
2019-01-03T10:09:08.682Z,2.57
2019-01-03T10:11:56.033Z,2.70
2019-01-03T10:14:43.123Z,2.47
2019-01-03T10:17:30.417Z,3.00
2019-01-03T10:20:17.498Z,8.00
2019-01-03T10:23:06.361Z,3.10
2019-01-03T10:25:53.345Z,3.50
2019-01-03T10:28:40.366Z,4.00
2019-01-03T10:31:27.189Z,3.70
2019-01-03T10:34:14.099Z,4.30
2019-01-03T10:37:01.138Z,4.27
2019-01-03T10:39:48.176Z,5.00
2019-01-03T10:42:35.166Z,4.13
2019-01-03T10:45:21.855Z,3.80
2019-01-03T10:48:08.847Z,4.43
2019-01-03T10:50:55.785Z,3.87
2019-01-03T10:53:43.098Z,3.90
2019-01-03T10:56:30.309Z,3.60
2019-01-03T10:59:17.536Z,3.50
2019-01-03T11:02:04.828Z,3.23
2019-01-03T11:04:51.857Z,3.43
2019-01-03T11:07:38.882Z,4.13
2019-01-03T11:10:25.844Z,4.60
2019-01-03T11:13:12.629Z,3.33
2019-01-03T11:15:59.768Z,3.13
2019-01-03T11:18:46.758Z,3.10
2019-01-03T11:21:33.794Z,3.20
2019-01-03T11:24:20.801Z,3.20
2019-01-03T11:27:08.044Z,3.67
2019-01-03T11:29:56.753Z,3.60
2019-01-03T11:32:43.555Z,3.17
2019-01-03T11:35:30.825Z,2.70
2019-01-03T11:38:18.162Z,2.77
2019-01-03T11:41:05.214Z,2.70
2019-01-03T11:43:52.470Z,2.80
2019-01-03T11:46:39.551Z,2.67
2019-01-03T11:49:26.607Z,3.00
2019-01-03T11:52:13.431Z,2.90
2019-01-03T11:55:00.164Z,2.80
2019-01-03T11:57:47.333Z,3.53
2019-01-03T12:00:34.446Z,3.60
2019-01-03T12:03:21.535Z,2.67
2019-01-03T12:06:08.607Z,2.70
2019-01-03T12:08:55.934Z,2.90
2019-01-03T12:11:42.740Z,3.00
2019-01-03T12:14:30.023Z,2.90
2019-01-03T12:17:17.180Z,3.30
2019-01-03T12:20:05.325Z,3.53
2019-01-03T12:22:52.121Z,3.63
2019-01-03T12:25:39.042Z,4.00
2019-01-03T12:28:26.446Z,4.43
2019-01-03T12:31:13.777Z,3.63
2019-01-03T12:34:00.690Z,3.63
2019-01-03T12:36:47.801Z,3.90
2019-01-03T12:39:34.761Z,3.47
2019-01-03T12:42:21.471Z,3.97
2019-01-03T12:45:09.191Z,4.17
2019-01-03T12:47:56.828Z,4.33
2019-01-03T12:50:44.311Z,4.55
2019-01-03T12:53:31.892Z,4.42
2019-01-03T12:56:18.929Z,3.97
2019-01-03T12:59:06.263Z,3.77
2019-01-03T13:01:53.236Z,3.73
2019-01-03T13:04:40.463Z,3.93
2019-01-03T13:07:27.787Z,4.00
2019-01-03T13:10:14.938Z,3.40
2019-01-03T13:13:02.135Z,3.73
2019-01-03T13:15:49.278Z,3.73
2019-01-03T13:18:36.443Z,3.60
2019-01-03T13:21:25.099Z,3.57
2019-01-03T13:24:12.570Z,3.40
2019-01-03T13:26:59.855Z,3.50
2019-01-03T13:29:47.380Z,3.60
2019-01-03T13:32:34.675Z,3.23
2019-01-03T13:35:22.051Z,2.70
2019-01-03T13:38:08.950Z,3.20
2019-01-03T13:40:56.267Z,3.20
2019-01-03T13:43:42.979Z,3.13
2019-01-03T13:46:30.330Z,3.77
2019-01-03T13:49:17.379Z,3.57
2019-01-03T13:52:04.512Z,3.67
2019-01-03T13:54:52.452Z,2.93
2019-01-03T13:57:39.659Z,3.70
2019-01-03T14:00:26.683Z,5.13
2019-01-03T14:03:14.094Z,3.40
2019-01-03T14:06:01.277Z,3.17
2019-01-03T14:08:48.552Z,3.30
2019-01-03T14:11:35.552Z,3.77
2019-01-03T14:14:22.675Z,3.27
2019-01-03T14:17:09.688Z,3.90
2019-01-03T14:19:57.199Z,3.58
2019-01-03T14:22:44.237Z,3.73
2019-01-03T14:25:31.559Z,3.10
2019-01-03T14:28:18.816Z,2.90
2019-01-03T14:31:05.898Z,3.13
2019-01-03T14:33:52.861Z,3.23
2019-01-03T14:36:40.036Z,2.93
2019-01-03T14:39:26.729Z,3.13
2019-01-03T14:42:14.100Z,3.83
2019-01-03T14:45:01.164Z,3.10
2019-01-03T14:47:48.513Z,3.40
2019-01-03T14:50:35.849Z,3.03
2019-01-03T14:53:23.120Z,3.20
2019-01-03T14:56:10.042Z,2.80
2019-01-03T14:58:57.505Z,3.43
2019-01-03T15:01:44.559Z,3.20
2019-01-03T15:04:31.788Z,3.40
2019-01-03T15:07:19.046Z,2.70
2019-01-03T15:10:07.770Z,3.63
2019-01-03T15:12:54.606Z,3.43
2019-01-03T15:15:41.635Z,3.50
2019-01-03T15:18:28.834Z,3.10
2019-01-03T15:21:16.073Z,3.53
2019-01-03T15:24:03.126Z,3.00
2019-01-03T15:26:50.116Z,3.13
2019-01-03T15:29:36.930Z,3.23
2019-01-03T15:32:24.226Z,3.37
2019-01-03T15:35:11.431Z,3.17
2019-01-03T15:38:00.023Z,2.97
2019-01-03T15:40:46.972Z,3.23
2019-01-03T15:43:34.442Z,3.60
2019-01-03T15:46:21.392Z,4.30
2019-01-03T15:49:08.690Z,3.83
2019-01-03T15:51:55.786Z,4.03
2019-01-03T15:54:43.150Z,3.60
2019-01-03T15:57:30.463Z,3.30
2019-01-03T16:00:17.238Z,3.33
2019-01-03T16:03:04.597Z,3.33
2019-01-03T16:05:52.005Z,3.70
2019-01-03T16:08:39.229Z,3.30
2019-01-03T16:11:26.489Z,3.33
2019-01-03T16:14:13.961Z,3.30
2019-01-03T16:17:00.934Z,3.10
2019-01-03T16:19:48.255Z,2.90
2019-01-03T16:22:35.325Z,3.57
2019-01-03T16:25:22.750Z,3.63
2019-01-03T16:28:10.182Z,4.37
2019-01-03T16:30:57.254Z,3.63
2019-01-03T16:33:44.810Z,3.30
2019-01-03T16:36:32.041Z,4.63
2019-01-03T16:39:19.128Z,4.70
2019-01-03T16:42:06.301Z,4.27
2019-01-03T16:44:53.460Z,6.23
2019-01-03T16:47:40.639Z,3.90
2019-01-03T16:50:27.761Z,4.20
2019-01-03T16:53:15.089Z,4.57
2019-01-03T16:56:02.198Z,4.90
2019-01-03T16:58:49.442Z,4.60
2019-01-03T17:01:36.925Z,4.20
2019-01-03T17:04:24.114Z,5.53
2019-01-03T17:07:11.134Z,4.90
2019-01-03T17:09:58.491Z,4.40
2019-01-03T17:12:46.017Z,5.47
2019-01-03T17:15:33.258Z,5.03
2019-01-03T17:18:20.561Z,5.20
2019-01-03T17:21:07.407Z,5.43
2019-01-03T17:23:54.630Z,6.50
2019-01-03T17:26:41.331Z,6.33
2019-01-03T17:29:28.703Z,6.43
2019-01-03T17:32:15.934Z,6.80
2019-01-03T17:35:03.098Z,7.57
2019-01-03T17:37:50.222Z,7.40
2019-01-03T17:40:37.167Z,7.47
2019-01-03T17:43:24.462Z,7.50
2019-01-03T17:46:11.471Z,7.63
2019-01-03T17:48:58.570Z,8.87
2019-01-03T17:51:45.555Z,9.07
2019-01-03T17:54:32.850Z,8.53
2019-01-03T17:57:19.807Z,7.83
2019-01-03T18:00:09.989Z,7.57
2019-01-03T18:02:57.194Z,8.20
2019-01-03T18:05:44.446Z,8.67
2019-01-03T18:08:31.623Z,9.57
2019-01-03T18:11:18.692Z,9.60
2019-01-03T18:14:05.872Z,9.17
2019-01-03T18:16:53.190Z,9.07
2019-01-03T18:19:40.717Z,9.83
2019-01-03T18:22:27.780Z,9.13
2019-01-03T18:25:14.933Z,8.87
2019-01-03T18:28:02.239Z,9.20
2019-01-03T18:30:49.131Z,8.90
2019-01-03T18:33:36.382Z,8.93
2019-01-03T18:36:23.525Z,9.77
2019-01-03T18:39:10.853Z,9.77
2019-01-03T18:41:57.855Z,9.60
2019-01-03T18:44:45.082Z,8.67
2019-01-03T18:47:32.057Z,9.53
2019-01-03T18:50:19.247Z,9.40
2019-01-03T18:53:06.517Z,9.30
2019-01-03T18:55:53.761Z,9.43
2019-01-03T18:58:40.707Z,9.57
2019-01-03T19:01:28.011Z,8.07
2019-01-03T19:04:15.384Z,7.90
2019-01-03T19:07:02.461Z,8.20
2019-01-03T19:09:49.332Z,9.43
2019-01-03T19:12:36.804Z,8.30
2019-01-03T19:15:23.817Z,8.40
2019-01-03T19:18:10.959Z,8.33
2019-01-03T19:20:57.948Z,7.80
2019-01-03T19:23:45.216Z,9.43
2019-01-03T19:26:32.026Z,12.40
2019-01-03T19:29:19.124Z,15.47
2019-01-03T19:32:06.342Z,16.07
2019-01-03T19:34:53.685Z,15.40
2019-01-03T19:37:41.026Z,15.83
2019-01-03T19:40:28.250Z,16.97
2019-01-03T19:43:15.346Z,14.40
2019-01-03T19:46:02.710Z,12.63
2019-01-03T19:48:49.731Z,11.90
2019-01-03T19:51:36.814Z,13.00
2019-01-03T19:54:24.740Z,13.80
2019-01-03T19:57:11.788Z,13.43
2019-01-03T19:59:59.210Z,11.37
2019-01-03T20:02:46.485Z,12.43
2019-01-03T20:05:33.522Z,11.43
2019-01-03T20:08:20.529Z,11.57
2019-01-03T20:11:07.910Z,10.93
2019-01-03T20:13:54.724Z,11.17
2019-01-03T20:16:42.073Z,11.57
2019-01-03T20:19:29.586Z,11.20
2019-01-03T20:22:16.634Z,10.97
2019-01-03T20:25:04.121Z,11.63
2019-01-03T20:27:51.296Z,11.73
2019-01-03T20:30:38.574Z,12.80
2019-01-03T20:33:25.566Z,13.17
2019-01-03T20:36:12.407Z,13.37
2019-01-03T20:38:59.525Z,12.83
2019-01-03T20:41:46.727Z,12.93
2019-01-03T20:44:33.834Z,13.43
2019-01-03T20:47:21.171Z,14.33
2019-01-03T20:50:10.540Z,13.27
2019-01-03T20:52:57.994Z,12.80
2019-01-03T20:55:45.368Z,13.30
2019-01-03T20:58:32.546Z,13.37
2019-01-03T21:01:19.594Z,12.57
2019-01-03T21:04:06.535Z,13.20
2019-01-03T21:06:53.814Z,13.33
2019-01-03T21:09:40.944Z,13.30
2019-01-03T21:12:28.371Z,13.20
2019-01-03T21:15:16.677Z,13.53
2019-01-03T21:18:04.146Z,12.63
2019-01-03T21:20:51.193Z,12.33
2019-01-03T21:23:38.175Z,13.23
2019-01-03T21:26:25.485Z,13.30
2019-01-03T21:29:12.697Z,12.33
2019-01-03T21:31:59.799Z,12.97
2019-01-03T21:34:46.972Z,12.87
2019-01-03T21:37:34.111Z,12.57
2019-01-03T21:40:21.277Z,12.90
2019-01-03T21:43:08.684Z,12.67
2019-01-03T21:45:55.736Z,11.67
2019-01-03T21:48:43.021Z,11.90
2019-01-03T21:51:29.925Z,12.50
2019-01-03T21:54:18.831Z,13.37
2019-01-03T21:57:06.202Z,12.63
2019-01-03T21:59:52.900Z,13.43
2019-01-03T22:02:40.129Z,13.57
2019-01-03T22:05:27.266Z,16.00
2019-01-03T22:08:14.311Z,15.40
2019-01-03T22:11:01.028Z,16.27
2019-01-03T22:13:47.956Z,15.90
2019-01-03T22:16:35.146Z,16.23
2019-01-03T22:19:22.595Z,16.07
2019-01-03T22:22:09.993Z,15.53
2019-01-03T22:24:57.231Z,15.33
2019-01-03T22:27:44.254Z,16.40
2019-01-03T22:30:31.078Z,14.77
2019-01-03T22:33:18.003Z,14.97
2019-01-03T22:36:05.314Z,13.63
2019-01-03T22:38:52.541Z,14.63
2019-01-03T22:41:39.517Z,13.80
2019-01-03T22:44:26.759Z,13.03
2019-01-03T22:47:13.792Z,13.63
2019-01-03T22:50:03.270Z,14.67
2019-01-03T22:52:50.285Z,14.43
2019-01-03T22:55:37.550Z,13.77
2019-01-03T22:58:24.823Z,13.80
2019-01-03T23:01:12.280Z,14.03
2019-01-03T23:03:59.473Z,14.37
2019-01-03T23:06:46.636Z,14.73
2019-01-03T23:09:34.016Z,14.80
2019-01-03T23:12:21.133Z,15.03
2019-01-03T23:15:08.138Z,14.70
2019-01-03T23:17:55.565Z,14.63
2019-01-03T23:20:42.631Z,15.27
2019-01-03T23:23:29.883Z,15.20
2019-01-03T23:26:17.226Z,15.53
2019-01-03T23:29:04.788Z,16.00
2019-01-03T23:31:51.966Z,16.87
2019-01-03T23:34:38.912Z,15.83
2019-01-03T23:37:26.215Z,15.60
2019-01-03T23:40:13.661Z,15.23
2019-01-03T23:43:00.714Z,16.17
2019-01-03T23:45:47.873Z,16.30
2019-01-03T23:48:35.573Z,21.47
2019-01-03T23:51:22.434Z,63.17
2019-01-03T23:54:09.684Z,25.67
2019-01-03T23:56:56.986Z,19.57
2019-01-03T23:59:44.382Z,17.40
